createdAt,value
2019-05-22T00:00:30.349Z,62.00
2019-05-22T00:02:57.402Z,60.15
2019-05-22T00:05:24.713Z,60.63
2019-05-22T00:07:51.761Z,64.03
2019-05-22T00:10:19.076Z,65.00
2019-05-22T00:12:47.261Z,71.07
2019-05-22T00:15:14.438Z,70.90
2019-05-22T00:17:41.498Z,70.90
2019-05-22T00:20:08.533Z,73.02
2019-05-22T00:22:35.590Z,81.37
2019-05-22T00:25:02.634Z,67.35
2019-05-22T00:27:29.984Z,76.10
2019-05-22T00:29:57.326Z,73.15
2019-05-22T00:32:24.381Z,79.95
2019-05-22T00:34:51.730Z,78.52
2019-05-22T00:37:18.853Z,71.53
2019-05-22T00:39:45.901Z,87.65
2019-05-22T00:42:13.281Z,84.72
2019-05-22T00:44:40.638Z,74.65
2019-05-22T00:47:07.688Z,77.12
2019-05-22T00:49:35.057Z,79.30
2019-05-22T00:52:02.089Z,76.87
2019-05-22T00:54:29.469Z,80.40
2019-05-22T00:56:56.526Z,83.55
2019-05-22T00:59:24.974Z,82.62
2019-05-22T01:01:53.250Z,86.60
2019-05-22T01:04:20.303Z,86.80
2019-05-22T01:06:47.387Z,86.35
2019-05-22T01:09:14.665Z,73.00
2019-05-22T01:11:42.077Z,85.53
2019-05-22T01:14:09.125Z,88.82
2019-05-22T01:16:36.478Z,78.67
2019-05-22T01:19:03.819Z,83.35
2019-05-22T01:21:31.187Z,79.82
2019-05-22T01:23:58.550Z,79.50
2019-05-22T01:26:25.589Z,81.25
2019-05-22T01:28:52.930Z,83.25
2019-05-22T01:31:19.974Z,81.47
2019-05-22T01:33:47.031Z,82.85
2019-05-22T01:36:14.076Z,84.30
2019-05-22T01:38:41.426Z,90.05
2019-05-22T01:41:08.468Z,76.53
2019-05-22T01:43:35.831Z,85.60
2019-05-22T01:46:03.129Z,82.92
2019-05-22T01:48:30.179Z,82.92
2019-05-22T01:50:57.513Z,81.60
2019-05-22T01:53:24.796Z,81.80
2019-05-22T01:55:51.918Z,79.35
2019-05-22T01:58:18.981Z,79.45
2019-05-22T02:00:46.305Z,75.55
2019-05-22T02:03:13.647Z,74.72
2019-05-22T02:05:41.024Z,78.20
2019-05-22T02:08:08.151Z,84.10
2019-05-22T02:10:35.193Z,83.12
2019-05-22T02:13:02.476Z,81.37
2019-05-22T02:15:29.528Z,81.20
2019-05-22T02:17:57.650Z,82.53
2019-05-22T02:20:25.031Z,83.22
2019-05-22T02:22:52.407Z,80.87
2019-05-22T02:25:19.752Z,84.00
2019-05-22T02:27:47.117Z,81.22
2019-05-22T02:30:14.507Z,82.85
2019-05-22T02:32:41.807Z,85.85
2019-05-22T02:35:08.864Z,83.67
2019-05-22T02:37:36.218Z,95.20
2019-05-22T02:40:03.585Z,80.92
2019-05-22T02:42:30.994Z,82.82
2019-05-22T02:44:58.084Z,84.87
2019-05-22T02:47:25.375Z,89.45
2019-05-22T02:49:52.783Z,81.57
2019-05-22T02:52:20.139Z,88.40
2019-05-22T02:54:47.218Z,88.07
2019-05-22T02:57:14.248Z,79.22
2019-05-22T02:59:41.428Z,84.65
2019-05-22T03:02:08.465Z,91.25
2019-05-22T03:04:35.516Z,90.77
2019-05-22T03:07:02.804Z,85.53
2019-05-22T03:09:29.864Z,86.65
2019-05-22T03:11:57.260Z,83.20
2019-05-22T03:14:24.300Z,78.80
2019-05-22T03:16:51.361Z,89.10
2019-05-22T03:19:18.398Z,87.15
2019-05-22T03:21:45.766Z,87.47
2019-05-22T03:24:13.113Z,80.83
2019-05-22T03:26:40.182Z,84.32
2019-05-22T03:29:07.498Z,91.47
2019-05-22T03:31:34.814Z,88.07
2019-05-22T03:34:02.106Z,98.20
2019-05-22T03:36:29.455Z,92.45
2019-05-22T03:38:56.811Z,93.85
2019-05-22T03:41:23.879Z,100.75
2019-05-22T03:43:51.191Z,90.15
2019-05-22T03:46:18.570Z,94.70
2019-05-22T03:48:45.926Z,104.78
2019-05-22T03:51:13.340Z,109.42
2019-05-22T03:53:40.358Z,104.72
2019-05-22T03:56:07.418Z,100.78
2019-05-22T03:58:34.555Z,124.47
2019-05-22T04:01:01.616Z,101.40
2019-05-22T04:03:28.936Z,110.63
2019-05-22T04:05:56.016Z,122.13
2019-05-22T04:08:23.353Z,113.77
2019-05-22T04:10:50.416Z,151.90
2019-05-22T04:13:18.612Z,121.00
2019-05-22T04:15:46.013Z,141.15
2019-05-22T04:18:13.325Z,116.85
2019-05-22T04:20:40.750Z,200.30
2019-05-22T04:23:08.160Z,152.75
2019-05-22T04:25:35.557Z,216.97
2019-05-22T04:28:04.042Z,147.02
2019-05-22T04:30:31.393Z,135.68
2019-05-22T04:32:58.751Z,150.20
2019-05-22T04:35:25.799Z,120.72
2019-05-22T04:37:52.969Z,91.05
2019-05-22T04:40:20.301Z,106.25
2019-05-22T04:42:47.347Z,105.87
2019-05-22T04:45:14.385Z,95.22
2019-05-22T04:47:41.445Z,100.40
2019-05-22T04:50:09.963Z,113.97
2019-05-22T04:52:36.988Z,97.67
2019-05-22T04:55:04.028Z,108.90
2019-05-22T04:57:31.152Z,99.62
2019-05-22T04:59:58.525Z,96.50
2019-05-22T05:02:25.866Z,99.47
2019-05-22T05:04:52.908Z,85.07
2019-05-22T05:07:19.963Z,89.32
2019-05-22T05:09:47.008Z,87.02
2019-05-22T05:12:14.224Z,87.53
2019-05-22T05:14:41.631Z,94.42
2019-05-22T05:17:08.986Z,87.95
2019-05-22T05:19:37.112Z,83.50
2019-05-22T05:22:04.500Z,75.28
2019-05-22T05:24:31.859Z,75.80
2019-05-22T05:26:58.942Z,86.37
2019-05-22T05:29:26.033Z,80.83
2019-05-22T05:31:53.408Z,80.12
2019-05-22T05:34:20.466Z,88.60
2019-05-22T05:36:47.836Z,81.50
2019-05-22T05:39:15.143Z,80.95
2019-05-22T05:41:42.185Z,84.40
2019-05-22T05:44:09.239Z,89.55
2019-05-22T05:46:36.635Z,79.92
2019-05-22T05:49:03.745Z,87.45
2019-05-22T05:51:31.022Z,94.22
2019-05-22T05:53:58.076Z,85.60
2019-05-22T05:56:25.134Z,91.75
2019-05-22T05:58:52.222Z,86.00
2019-05-22T06:01:19.527Z,85.50
2019-05-22T06:03:46.876Z,84.10
2019-05-22T06:06:13.927Z,82.12
2019-05-22T06:08:40.993Z,77.17
2019-05-22T06:11:08.034Z,75.83
2019-05-22T06:13:35.392Z,75.40
2019-05-22T06:16:02.481Z,67.70
2019-05-22T06:18:29.899Z,77.55
2019-05-22T06:21:03.789Z,70.40
2019-05-22T06:23:26.241Z,69.00
2019-05-22T06:25:53.602Z,73.10
2019-05-22T06:28:20.938Z,73.78
2019-05-22T06:30:48.256Z,70.05
2019-05-22T06:33:15.653Z,67.17
2019-05-22T06:35:42.711Z,63.08
2019-05-22T06:38:10.048Z,65.70
2019-05-22T06:40:37.457Z,65.15
2019-05-22T06:43:04.705Z,63.17
2019-05-22T06:45:31.764Z,63.08
2019-05-22T06:47:59.063Z,68.70
2019-05-22T06:50:26.418Z,68.72
2019-05-22T06:53:08.904Z,66.28
2019-05-22T06:55:22.561Z,70.57
2019-05-22T06:57:49.932Z,68.40
2019-05-22T07:00:16.992Z,69.10
2019-05-22T07:02:44.107Z,65.75
2019-05-22T07:05:11.485Z,67.00
2019-05-22T07:07:38.780Z,65.22
2019-05-22T07:10:06.187Z,68.67
2019-05-22T07:12:33.558Z,73.37
2019-05-22T07:15:00.715Z,66.07
2019-05-22T07:17:29.493Z,75.67
2019-05-22T07:19:56.829Z,78.35
2019-05-22T07:22:23.887Z,68.80
2019-05-22T07:24:51.233Z,67.95
2019-05-22T07:27:18.595Z,73.42
2019-05-22T07:29:45.941Z,66.22
2019-05-22T07:32:13.320Z,62.85
2019-05-22T07:34:40.366Z,72.82
2019-05-22T07:37:07.700Z,64.58
2019-05-22T07:39:35.059Z,66.80
2019-05-22T07:42:02.187Z,73.47
2019-05-22T07:44:29.230Z,72.00
2019-05-22T07:46:56.609Z,78.95
2019-05-22T07:49:24.829Z,68.42
2019-05-22T07:52:00.697Z,65.87
2019-05-22T07:54:20.861Z,71.07
2019-05-22T07:56:48.288Z,66.25
2019-05-22T07:59:15.334Z,66.20
2019-05-22T08:01:42.690Z,61.15
2019-05-22T08:04:10.041Z,66.62
2019-05-22T08:06:37.397Z,66.12
2019-05-22T08:09:04.449Z,60.48
2019-05-22T08:11:31.857Z,62.10
2019-05-22T08:13:59.309Z,60.58
2019-05-22T08:16:26.366Z,64.97
2019-05-22T08:18:53.410Z,53.58
2019-05-22T08:21:23.379Z,54.58
2019-05-22T08:23:49.497Z,56.45
2019-05-22T08:26:16.899Z,49.63
2019-05-22T08:28:44.210Z,48.40
2019-05-22T08:31:11.565Z,54.67
2019-05-22T08:33:38.620Z,47.67
2019-05-22T08:36:05.721Z,45.70
2019-05-22T08:38:33.021Z,46.37
2019-05-22T08:41:00.063Z,50.20
2019-05-22T08:43:27.419Z,49.67
2019-05-22T08:45:54.713Z,46.40
2019-05-22T08:48:22.126Z,48.92
2019-05-22T08:50:49.525Z,50.50
2019-05-22T08:53:16.944Z,51.35
2019-05-22T08:55:44.297Z,45.20
2019-05-22T08:58:11.372Z,45.95
2019-05-22T09:00:38.409Z,45.48
2019-05-22T09:03:05.467Z,47.33
2019-05-22T09:05:32.518Z,42.78
2019-05-22T09:07:59.952Z,44.75
2019-05-22T09:10:27.305Z,43.05
2019-05-22T09:12:54.656Z,46.80
2019-05-22T09:15:21.716Z,41.65
2019-05-22T09:17:48.847Z,47.67
2019-05-22T09:20:16.203Z,43.02
2019-05-22T09:22:43.537Z,44.50
2019-05-22T09:25:10.623Z,44.75
2019-05-22T09:27:38.088Z,42.35
2019-05-22T09:30:05.189Z,40.65
2019-05-22T09:32:32.596Z,41.60
2019-05-22T09:34:59.636Z,42.75
2019-05-22T09:37:26.697Z,37.83
2019-05-22T09:39:54.026Z,40.78
2019-05-22T09:42:21.377Z,39.42
2019-05-22T09:44:48.736Z,39.48
2019-05-22T09:47:15.798Z,34.80
2019-05-22T09:49:43.161Z,30.17
2019-05-22T09:52:10.231Z,29.32
2019-05-22T09:54:37.645Z,33.35
2019-05-22T09:57:04.976Z,33.65
2019-05-22T09:59:32.354Z,28.25
2019-05-22T10:01:59.708Z,29.37
2019-05-22T10:04:27.070Z,26.42
2019-05-22T10:06:54.193Z,26.40
2019-05-22T10:09:21.609Z,28.17
2019-05-22T10:11:49.026Z,25.55
2019-05-22T10:14:16.343Z,24.27
2019-05-22T10:16:43.741Z,24.18
2019-05-22T10:19:11.089Z,27.15
2019-05-22T10:21:38.136Z,27.62
2019-05-22T10:24:06.620Z,25.27
2019-05-22T10:26:33.669Z,26.80
2019-05-22T10:29:01.043Z,22.95
2019-05-22T10:31:29.509Z,23.70
2019-05-22T10:33:56.574Z,24.45
2019-05-22T10:36:23.617Z,28.73
2019-05-22T10:38:51.077Z,27.02
2019-05-22T10:41:18.121Z,30.43
2019-05-22T10:43:45.180Z,28.95
2019-05-22T10:46:12.797Z,27.22
2019-05-22T10:48:40.803Z,25.90
2019-05-22T10:51:08.248Z,34.70
2019-05-22T10:53:35.308Z,32.83
2019-05-22T10:56:02.890Z,29.30
2019-05-22T10:58:29.985Z,54.27
2019-05-22T11:00:57.030Z,36.85
2019-05-22T11:03:24.084Z,26.73
2019-05-22T11:06:05.585Z,33.50
2019-05-22T11:08:20.301Z,30.90
2019-05-22T11:10:47.301Z,30.68
2019-05-22T11:13:14.645Z,29.12
2019-05-22T11:15:41.997Z,26.30
2019-05-22T11:18:09.060Z,26.20
2019-05-22T11:20:36.405Z,25.92
2019-05-22T11:23:03.784Z,26.68
2019-05-22T11:25:31.136Z,27.00
2019-05-22T11:27:58.177Z,26.27
2019-05-22T11:30:25.244Z,25.00
2019-05-22T11:32:52.286Z,25.43
2019-05-22T11:35:19.347Z,24.90
2019-05-22T11:37:46.662Z,24.12
2019-05-22T11:40:13.720Z,29.15
2019-05-22T11:42:41.085Z,30.00
2019-05-22T11:45:08.124Z,30.43
2019-05-22T11:47:35.466Z,30.35
2019-05-22T11:50:02.562Z,31.90
2019-05-22T11:52:30.000Z,31.02
2019-05-22T11:54:57.324Z,31.60
2019-05-22T11:57:24.374Z,32.28
2019-05-22T11:59:51.787Z,34.40
2019-05-22T12:02:18.826Z,33.78
2019-05-22T12:04:48.681Z,38.42
2019-05-22T12:07:15.050Z,31.42
2019-05-22T12:09:42.402Z,42.73
2019-05-22T12:12:09.765Z,32.48
2019-05-22T12:14:37.072Z,35.85
2019-05-22T12:17:04.447Z,36.90
2019-05-22T12:19:31.808Z,32.35
2019-05-22T12:21:59.167Z,39.83
2019-05-22T12:24:32.448Z,34.70
2019-05-22T12:26:55.280Z,38.20
2019-05-22T12:29:23.680Z,36.38
2019-05-22T12:31:50.775Z,36.73
2019-05-22T12:34:18.259Z,32.90
2019-05-22T12:36:45.650Z,32.23
2019-05-22T12:39:12.711Z,33.78
2019-05-22T12:41:40.107Z,37.83
2019-05-22T12:44:07.508Z,35.73
2019-05-22T12:46:34.859Z,33.78
2019-05-22T12:49:01.905Z,34.25
2019-05-22T12:51:29.276Z,33.02
2019-05-22T12:53:56.324Z,38.45
2019-05-22T12:56:23.661Z,34.73
2019-05-22T12:58:51.019Z,38.83
2019-05-22T13:01:18.375Z,35.13
2019-05-22T13:03:45.417Z,36.03
2019-05-22T13:06:12.473Z,33.18
2019-05-22T13:08:39.825Z,33.23
2019-05-22T13:11:06.887Z,38.30
2019-05-22T13:13:33.930Z,30.62
2019-05-22T13:16:01.063Z,32.83
2019-05-22T13:18:28.123Z,35.68
2019-05-22T13:20:55.180Z,32.95
2019-05-22T13:23:22.220Z,30.70
2019-05-22T13:25:49.574Z,31.00
2019-05-22T13:28:17.029Z,31.85
2019-05-22T13:30:44.089Z,28.12
2019-05-22T13:33:11.139Z,29.12
2019-05-22T13:35:38.201Z,29.87
2019-05-22T13:38:05.551Z,28.35
2019-05-22T13:40:32.606Z,30.12
2019-05-22T13:42:59.932Z,32.53
2019-05-22T13:45:29.791Z,30.02
2019-05-22T13:47:56.094Z,33.23
2019-05-22T13:50:23.451Z,32.08
2019-05-22T13:52:50.808Z,32.20
2019-05-22T13:55:17.869Z,32.23
2019-05-22T13:57:46.283Z,30.35
2019-05-22T14:00:13.343Z,28.40
2019-05-22T14:02:40.405Z,28.02
2019-05-22T14:05:07.782Z,28.87
2019-05-22T14:07:35.137Z,28.73
2019-05-22T14:10:02.535Z,29.80
2019-05-22T14:12:29.992Z,30.95
2019-05-22T14:14:57.079Z,31.80
2019-05-22T14:17:24.139Z,27.60
2019-05-22T14:19:51.609Z,29.45
2019-05-22T14:22:18.944Z,24.60
2019-05-22T14:24:45.987Z,28.60
2019-05-22T14:27:13.044Z,26.80
2019-05-22T14:29:40.412Z,24.35
2019-05-22T14:32:07.482Z,24.70
2019-05-22T14:34:34.799Z,24.90
2019-05-22T14:37:02.148Z,22.95
2019-05-22T14:39:29.188Z,26.05
2019-05-22T14:41:56.553Z,26.95
2019-05-22T14:44:23.608Z,20.32
2019-05-22T14:46:50.681Z,22.30
2019-05-22T14:49:20.815Z,22.37
2019-05-22T14:51:46.769Z,20.85
2019-05-22T14:54:14.794Z,20.20
2019-05-22T14:56:41.844Z,19.60
2019-05-22T14:59:08.888Z,17.62
2019-05-22T15:01:36.213Z,18.82
2019-05-22T15:04:03.572Z,16.40
2019-05-22T15:06:30.650Z,17.55
2019-05-22T15:08:57.973Z,18.10
2019-05-22T15:11:25.328Z,20.82
2019-05-22T15:13:52.380Z,16.75
2019-05-22T15:16:19.442Z,15.80
2019-05-22T15:18:46.778Z,16.90
2019-05-22T15:21:13.835Z,17.75
2019-05-22T15:23:41.182Z,20.20
2019-05-22T15:26:08.247Z,23.32
2019-05-22T15:28:35.894Z,19.27
2019-05-22T15:31:02.958Z,15.58
2019-05-22T15:33:30.325Z,14.80
2019-05-22T15:35:57.373Z,14.85
2019-05-22T15:38:24.447Z,12.50
2019-05-22T15:41:05.061Z,14.55
2019-05-22T15:43:32.435Z,12.28
2019-05-22T15:45:59.511Z,14.30
2019-05-22T15:51:11.144Z,13.00
2019-05-22T15:53:44.125Z,13.68
2019-05-22T16:02:01.364Z,14.47
2019-05-22T16:04:29.296Z,12.13
2019-05-22T16:06:56.504Z,12.20
2019-05-22T16:09:26.897Z,12.50
2019-05-22T16:17:27.039Z,15.95
2019-05-22T16:19:56.516Z,13.43
2019-05-22T16:22:26.906Z,14.40
2019-05-22T16:24:56.333Z,11.33
2019-05-22T16:27:23.553Z,16.67
2019-05-22T16:29:50.602Z,13.25
2019-05-22T16:32:22.835Z,12.13
2019-05-22T16:34:56.882Z,13.62
2019-05-22T16:37:26.092Z,12.80
2019-05-22T16:40:12.129Z,12.80
2019-05-22T16:45:27.065Z,11.00
2019-05-22T17:01:12.424Z,12.03
2019-05-22T17:03:44.492Z,10.63
2019-05-22T17:06:23.914Z,10.80
2019-05-22T17:08:52.469Z,10.55
2019-05-22T17:11:20.975Z,12.70
2019-05-22T17:13:52.547Z,11.57
2019-05-22T17:16:23.443Z,11.15
2019-05-22T17:18:52.689Z,10.68
2019-05-22T17:24:12.645Z,11.08
2019-05-22T17:26:43.509Z,10.47
2019-05-22T17:29:11.723Z,11.70
2019-05-22T17:31:47.234Z,13.62
2019-05-22T17:34:18.867Z,12.00
2019-05-22T17:36:57.326Z,10.98
2019-05-22T17:39:24.934Z,8.90
2019-05-22T17:41:57.258Z,10.85
2019-05-22T17:47:16.717Z,9.13
2019-05-22T17:49:45.224Z,8.53
2019-05-22T17:52:19.411Z,9.80
2019-05-22T17:54:46.888Z,8.30
2019-05-22T18:02:53.514Z,8.10
2019-05-22T18:07:57.085Z,7.62
2019-05-22T18:10:25.689Z,8.90
2019-05-22T18:13:07.999Z,7.08
2019-05-22T18:26:16.454Z,7.12
2019-05-22T18:28:43.935Z,9.78
2019-05-22T18:31:10.976Z,6.40
2019-05-22T18:36:13.607Z,6.85
2019-05-22T18:38:40.864Z,5.80
2019-05-22T18:41:26.336Z,6.75
2019-05-22T18:43:53.960Z,6.37
2019-05-22T18:49:24.661Z,6.47
2019-05-22T18:52:08.348Z,7.50
2019-05-22T18:57:17.190Z,6.30
2019-05-22T18:59:44.918Z,6.17
2019-05-22T19:02:18.276Z,8.48
2019-05-22T19:04:46.841Z,7.17
2019-05-22T19:07:24.353Z,7.28
2019-05-22T19:09:52.907Z,6.92
2019-05-22T19:15:26.993Z,10.00
2019-05-22T19:20:58.164Z,7.75
2019-05-22T19:23:41.781Z,10.65
2019-05-22T19:26:12.882Z,11.18
2019-05-22T19:28:51.217Z,9.08
2019-05-22T19:31:20.828Z,7.85
2019-05-22T19:33:58.848Z,11.20
2019-05-22T19:39:20.292Z,7.58
2019-05-22T19:54:58.193Z,8.53
2019-05-22T20:00:22.620Z,9.40
2019-05-22T20:02:50.801Z,10.68
2019-05-22T20:05:18.377Z,9.70
2019-05-22T20:07:46.064Z,9.08
2019-05-22T20:10:14.450Z,11.22
2019-05-22T20:12:41.979Z,11.40
2019-05-22T20:15:09.044Z,8.48
2019-05-22T20:17:36.369Z,11.57
2019-05-22T20:20:04.554Z,10.38
2019-05-22T20:22:32.119Z,10.10
2019-05-22T20:24:59.473Z,9.93
2019-05-22T20:27:26.580Z,10.05
2019-05-22T20:29:53.629Z,11.00
2019-05-22T20:32:20.666Z,11.28
2019-05-22T20:34:47.795Z,11.40
2019-05-22T20:37:15.123Z,12.28
2019-05-22T20:39:42.188Z,10.05
2019-05-22T20:42:09.535Z,11.95
2019-05-22T20:44:36.573Z,13.20
2019-05-22T20:47:04.604Z,13.28
2019-05-22T20:49:31.631Z,12.05
2019-05-22T20:51:58.687Z,11.28
2019-05-22T20:54:25.723Z,17.48
2019-05-22T20:56:52.779Z,13.45
2019-05-22T20:59:19.823Z,12.37
2019-05-22T21:01:47.049Z,16.23
2019-05-22T21:04:14.340Z,14.10
2019-05-22T21:06:41.408Z,16.40
2019-05-22T21:09:08.795Z,14.63
2019-05-22T21:11:35.853Z,13.03
2019-05-22T21:14:02.974Z,14.70
2019-05-22T21:16:30.028Z,14.58
2019-05-22T21:18:57.072Z,13.22
2019-05-22T21:21:24.444Z,14.85
2019-05-22T21:23:51.489Z,11.57
2019-05-22T21:26:18.852Z,11.40
2019-05-22T21:28:46.201Z,12.43
2019-05-22T21:31:13.559Z,14.98
2019-05-22T21:33:40.594Z,12.55
2019-05-22T21:36:07.647Z,12.28
2019-05-22T21:38:35.013Z,11.18
2019-05-22T21:41:02.379Z,14.07
2019-05-22T21:43:29.729Z,12.90
2019-05-22T21:45:56.773Z,13.40
2019-05-22T21:48:23.841Z,13.13
2019-05-22T21:50:50.867Z,13.98
2019-05-22T21:53:18.237Z,12.23
2019-05-22T21:55:45.802Z,11.68
2019-05-22T21:58:14.054Z,15.23
2019-05-22T22:00:41.098Z,16.37
2019-05-22T22:03:08.679Z,13.08
2019-05-22T22:05:37.163Z,14.23
2019-05-22T22:08:04.518Z,15.40
2019-05-22T22:10:31.854Z,16.52
2019-05-22T22:12:59.166Z,13.88
2019-05-22T22:15:26.289Z,14.80
2019-05-22T22:17:53.715Z,14.95
2019-05-22T22:20:20.758Z,13.70
2019-05-22T22:22:48.137Z,14.98
2019-05-22T22:25:15.183Z,15.32
2019-05-22T22:27:42.540Z,18.67
2019-05-22T22:30:09.581Z,14.58
2019-05-22T22:32:36.639Z,15.50
2019-05-22T22:35:03.970Z,17.35
2019-05-22T22:37:31.094Z,15.50
2019-05-22T22:39:58.127Z,15.60
2019-05-22T22:42:25.189Z,15.70
2019-05-22T22:44:52.227Z,18.75
2019-05-22T22:47:19.285Z,16.80
2019-05-22T22:49:46.317Z,16.32
2019-05-22T22:52:13.378Z,17.17
2019-05-22T22:54:40.412Z,16.32
2019-05-22T22:57:07.473Z,16.90
2019-05-22T22:59:34.758Z,17.55
2019-05-22T23:02:02.114Z,17.55
2019-05-22T23:04:29.176Z,15.60
2019-05-22T23:06:56.216Z,17.55
2019-05-22T23:09:23.263Z,17.05
2019-05-22T23:11:50.627Z,19.45
2019-05-22T23:14:17.686Z,18.77
2019-05-22T23:16:44.728Z,20.62
2019-05-22T23:19:11.854Z,17.98
2019-05-22T23:21:39.211Z,22.00
2019-05-22T23:24:06.569Z,18.57
2019-05-22T23:26:33.856Z,19.25
2019-05-22T23:29:00.910Z,18.92
2019-05-22T23:31:27.946Z,16.67
2019-05-22T23:33:55.297Z,17.60
2019-05-22T23:36:22.326Z,18.62
2019-05-22T23:38:49.671Z,21.02
2019-05-22T23:41:16.706Z,19.70
2019-05-22T23:43:44.073Z,20.70
2019-05-22T23:46:11.118Z,23.15
2019-05-22T23:48:38.480Z,17.90
2019-05-22T23:51:05.774Z,21.90
2019-05-22T23:53:33.092Z,25.97
2019-05-22T23:56:00.444Z,23.77
2019-05-22T23:58:27.819Z,24.85
